sensor_id;sensor_type;location;lat;lon;timestamp;temperature;humidity
27534;DHT22;14973;51.460;7.008;2022-10-22T00:01:48;15.90;99.90
27534;DHT22;14973;51.460;7.008;2022-10-22T00:04:13;15.90;99.90
27534;DHT22;14973;51.460;7.008;2022-10-22T00:06:39;15.90;99.90
27534;DHT22;14973;51.460;7.008;2022-10-22T00:09:07;15.80;99.90
27534;DHT22;14973;51.460;7.008;2022-10-22T00:11:32;15.90;99.90
27534;DHT22;14973;51.460;7.008;2022-10-22T00:13:58;15.80;99.90
27534;DHT22;14973;51.460;7.008;2022-10-22T00:16:24;15.80;99.90
27534;DHT22;14973;51.460;7.008;2022-10-22T00:18:49;15.90;99.90
27534;DHT22;14973;51.460;7.008;2022-10-22T00:21:15;15.90;99.90
27534;DHT22;14973;51.460;7.008;2022-10-22T00:23:41;15.90;99.90
27534;DHT22;14973;51.460;7.008;2022-10-22T00:26:07;16.00;99.90
27534;DHT22;14973;51.460;7.008;2022-10-22T00:28:33;16.00;99.90
27534;DHT22;14973;51.460;7.008;2022-10-22T00:31:00;16.00;99.90
27534;DHT22;14973;51.460;7.008;2022-10-22T00:33:26;16.00;99.90
27534;DHT22;14973;51.460;7.008;2022-10-22T00:35:52;16.00;99.90
27534;DHT22;14973;51.460;7.008;2022-10-22T00:38:18;16.00;99.90
27534;DHT22;14973;51.460;7.008;2022-10-22T00:40:44;16.00;99.90
27534;DHT22;14973;51.460;7.008;2022-10-22T00:43:16;16.00;99.90
27534;DHT22;14973;51.460;7.008;2022-10-22T00:45:42;16.00;99.90
27534;DHT22;14973;51.460;7.008;2022-10-22T00:48:18;15.90;99.90
27534;DHT22;14973;51.460;7.008;2022-10-22T00:50:47;15.90;99.90
27534;DHT22;14973;51.460;7.008;2022-10-22T00:53:19;15.90;99.90
27534;DHT22;14973;51.460;7.008;2022-10-22T00:55:48;16.00;99.90
27534;DHT22;14973;51.460;7.008;2022-10-22T00:58:15;16.00;99.90
27534;DHT22;14973;51.460;7.008;2022-10-22T01:00:42;16.10;99.90
27534;DHT22;14973;51.460;7.008;2022-10-22T01:03:08;16.00;99.90
27534;DHT22;14973;51.460;7.008;2022-10-22T01:05:40;16.10;99.90
27534;DHT22;14973;51.460;7.008;2022-10-22T01:08:14;16.20;99.90
27534;DHT22;14973;51.460;7.008;2022-10-22T01:10:51;16.10;99.90
27534;DHT22;14973;51.460;7.008;2022-10-22T01:13:32;16.10;99.90
27534;DHT22;14973;51.460;7.008;2022-10-22T01:18:58;16.20;99.90
27534;DHT22;14973;51.460;7.008;2022-10-22T01:21:44;16.10;99.90
27534;DHT22;14973;51.460;7.008;2022-10-22T01:29:57;16.00;99.90
27534;DHT22;14973;51.460;7.008;2022-10-22T01:32:26;16.00;99.90
27534;DHT22;14973;51.460;7.008;2022-10-22T01:34:59;16.00;99.90
27534;DHT22;14973;51.460;7.008;2022-10-22T01:37:28;16.00;99.90
27534;DHT22;14973;51.460;7.008;2022-10-22T01:39:56;15.90;99.90
27534;DHT22;14973;51.460;7.008;2022-10-22T01:42:22;16.00;99.90
27534;DHT22;14973;51.460;7.008;2022-10-22T01:44:48;16.00;99.90
27534;DHT22;14973;51.460;7.008;2022-10-22T01:58:54;16.00;99.90
27534;DHT22;14973;51.460;7.008;2022-10-22T02:01:30;16.00;99.90
27534;DHT22;14973;51.460;7.008;2022-10-22T02:04:19;16.00;99.90
27534;DHT22;14973;51.460;7.008;2022-10-22T02:06:49;16.00;99.90
27534;DHT22;14973;51.460;7.008;2022-10-22T02:09:18;16.00;99.90
27534;DHT22;14973;51.460;7.008;2022-10-22T02:11:45;15.90;99.90
27534;DHT22;14973;51.460;7.008;2022-10-22T02:14:11;15.90;99.90
27534;DHT22;14973;51.460;7.008;2022-10-22T02:16:43;15.90;99.90
27534;DHT22;14973;51.460;7.008;2022-10-22T02:19:28;15.90;99.90
27534;DHT22;14973;51.460;7.008;2022-10-22T02:21:56;15.90;99.90
27534;DHT22;14973;51.460;7.008;2022-10-22T02:24:22;15.90;99.90
27534;DHT22;14973;51.460;7.008;2022-10-22T02:26:58;16.00;99.90
27534;DHT22;14973;51.460;7.008;2022-10-22T02:29:29;16.00;99.90
27534;DHT22;14973;51.460;7.008;2022-10-22T02:32:00;16.00;99.90
27534;DHT22;14973;51.460;7.008;2022-10-22T02:34:30;15.90;99.90
27534;DHT22;14973;51.460;7.008;2022-10-22T02:36:58;15.90;99.90
27534;DHT22;14973;51.460;7.008;2022-10-22T02:39:24;15.90;99.90
27534;DHT22;14973;51.460;7.008;2022-10-22T02:41:50;15.90;99.90
27534;DHT22;14973;51.460;7.008;2022-10-22T02:44:19;15.90;99.90
27534;DHT22;14973;51.460;7.008;2022-10-22T02:46:45;15.90;99.90
27534;DHT22;14973;51.460;7.008;2022-10-22T02:49:11;15.80;99.90
27534;DHT22;14973;51.460;7.008;2022-10-22T02:51:36;15.80;99.90
27534;DHT22;14973;51.460;7.008;2022-10-22T02:54:02;15.80;99.90
27534;DHT22;14973;51.460;7.008;2022-10-22T02:56:28;15.80;99.90
27534;DHT22;14973;51.460;7.008;2022-10-22T02:58:53;15.80;99.90
27534;DHT22;14973;51.460;7.008;2022-10-22T03:01:19;15.80;99.90
27534;DHT22;14973;51.460;7.008;2022-10-22T03:03:44;15.90;99.90
27534;DHT22;14973;51.460;7.008;2022-10-22T03:06:10;15.80;99.90
27534;DHT22;14973;51.460;7.008;2022-10-22T03:08:35;15.80;99.90
27534;DHT22;14973;51.460;7.008;2022-10-22T03:11:01;15.80;99.90
27534;DHT22;14973;51.460;7.008;2022-10-22T03:13:27;15.80;99.90
27534;DHT22;14973;51.460;7.008;2022-10-22T03:15:53;15.80;99.90
27534;DHT22;14973;51.460;7.008;2022-10-22T03:18:18;15.70;99.90
27534;DHT22;14973;51.460;7.008;2022-10-22T03:20:44;15.60;99.90
27534;DHT22;14973;51.460;7.008;2022-10-22T03:23:11;15.60;99.90
27534;DHT22;14973;51.460;7.008;2022-10-22T03:25:39;15.50;99.90
27534;DHT22;14973;51.460;7.008;2022-10-22T03:28:07;15.50;99.90
27534;DHT22;14973;51.460;7.008;2022-10-22T03:30:33;15.50;99.90
27534;DHT22;14973;51.460;7.008;2022-10-22T03:32:59;15.60;99.90
27534;DHT22;14973;51.460;7.008;2022-10-22T03:35:25;15.60;99.90
27534;DHT22;14973;51.460;7.008;2022-10-22T03:37:50;15.60;99.90
27534;DHT22;14973;51.460;7.008;2022-10-22T03:40:17;15.50;99.90
27534;DHT22;14973;51.460;7.008;2022-10-22T03:42:42;15.50;99.90
27534;DHT22;14973;51.460;7.008;2022-10-22T03:45:09;15.50;99.90
27534;DHT22;14973;51.460;7.008;2022-10-22T03:47:34;15.40;99.90
27534;DHT22;14973;51.460;7.008;2022-10-22T03:50:01;15.40;99.90
27534;DHT22;14973;51.460;7.008;2022-10-22T03:52:27;15.30;99.90
27534;DHT22;14973;51.460;7.008;2022-10-22T03:54:53;15.30;99.90
27534;DHT22;14973;51.460;7.008;2022-10-22T03:57:18;15.30;99.90
27534;DHT22;14973;51.460;7.008;2022-10-22T03:59:44;15.30;99.90
27534;DHT22;14973;51.460;7.008;2022-10-22T04:02:11;15.30;99.90
27534;DHT22;14973;51.460;7.008;2022-10-22T04:04:38;15.40;99.90
27534;DHT22;14973;51.460;7.008;2022-10-22T04:07:04;15.40;99.90
27534;DHT22;14973;51.460;7.008;2022-10-22T04:09:34;15.40;99.90
27534;DHT22;14973;51.460;7.008;2022-10-22T04:11:59;15.40;99.90
27534;DHT22;14973;51.460;7.008;2022-10-22T04:14:25;15.40;99.90
27534;DHT22;14973;51.460;7.008;2022-10-22T04:16:51;15.40;99.90
27534;DHT22;14973;51.460;7.008;2022-10-22T04:19:16;15.50;99.90
27534;DHT22;14973;51.460;7.008;2022-10-22T04:21:43;15.40;99.90
27534;DHT22;14973;51.460;7.008;2022-10-22T04:24:08;15.50;99.90
27534;DHT22;14973;51.460;7.008;2022-10-22T04:26:34;15.50;99.90
27534;DHT22;14973;51.460;7.008;2022-10-22T04:29:00;15.50;99.90
27534;DHT22;14973;51.460;7.008;2022-10-22T04:31:25;15.60;99.90
27534;DHT22;14973;51.460;7.008;2022-10-22T04:33:56;15.60;99.90
27534;DHT22;14973;51.460;7.008;2022-10-22T04:36:23;15.60;99.90
27534;DHT22;14973;51.460;7.008;2022-10-22T04:38:54;15.60;99.90
27534;DHT22;14973;51.460;7.008;2022-10-22T04:41:22;15.70;99.90
27534;DHT22;14973;51.460;7.008;2022-10-22T04:43:49;15.60;99.90
27534;DHT22;14973;51.460;7.008;2022-10-22T04:46:16;15.60;99.90
27534;DHT22;14973;51.460;7.008;2022-10-22T04:48:43;15.60;99.90
27534;DHT22;14973;51.460;7.008;2022-10-22T04:51:11;15.60;99.90
27534;DHT22;14973;51.460;7.008;2022-10-22T04:53:37;15.50;99.90
27534;DHT22;14973;51.460;7.008;2022-10-22T04:56:19;15.60;99.90
27534;DHT22;14973;51.460;7.008;2022-10-22T04:58:47;15.60;99.90
27534;DHT22;14973;51.460;7.008;2022-10-22T05:01:36;15.60;99.90
27534;DHT22;14973;51.460;7.008;2022-10-22T05:04:04;15.70;99.90
27534;DHT22;14973;51.460;7.008;2022-10-22T05:06:31;15.70;99.90
27534;DHT22;14973;51.460;7.008;2022-10-22T05:09:02;15.70;99.90
27534;DHT22;14973;51.460;7.008;2022-10-22T05:11:34;15.70;99.90
27534;DHT22;14973;51.460;7.008;2022-10-22T05:14:02;15.70;99.90
27534;DHT22;14973;51.460;7.008;2022-10-22T05:16:29;15.60;99.90
27534;DHT22;14973;51.460;7.008;2022-10-22T05:18:55;15.60;99.90
27534;DHT22;14973;51.460;7.008;2022-10-22T05:21:22;15.50;99.90
27534;DHT22;14973;51.460;7.008;2022-10-22T05:23:49;15.50;99.90
27534;DHT22;14973;51.460;7.008;2022-10-22T05:26:17;15.50;99.90
27534;DHT22;14973;51.460;7.008;2022-10-22T05:28:43;15.40;99.90
27534;DHT22;14973;51.460;7.008;2022-10-22T05:31:11;15.30;99.90
27534;DHT22;14973;51.460;7.008;2022-10-22T05:33:36;15.20;99.90
27534;DHT22;14973;51.460;7.008;2022-10-22T05:36:04;15.20;99.90
27534;DHT22;14973;51.460;7.008;2022-10-22T05:38:31;15.20;99.90
27534;DHT22;14973;51.460;7.008;2022-10-22T05:41:11;15.20;99.90
27534;DHT22;14973;51.460;7.008;2022-10-22T05:43:37;15.20;99.90
27534;DHT22;14973;51.460;7.008;2022-10-22T05:46:09;15.20;99.90
27534;DHT22;14973;51.460;7.008;2022-10-22T05:48:35;15.20;99.90
27534;DHT22;14973;51.460;7.008;2022-10-22T05:51:03;15.20;99.90
27534;DHT22;14973;51.460;7.008;2022-10-22T05:53:31;15.20;99.90
27534;DHT22;14973;51.460;7.008;2022-10-22T05:56:02;15.20;99.90
27534;DHT22;14973;51.460;7.008;2022-10-22T05:58:29;15.20;99.90
27534;DHT22;14973;51.460;7.008;2022-10-22T06:01:00;15.20;99.90
27534;DHT22;14973;51.460;7.008;2022-10-22T06:03:26;15.20;99.90
27534;DHT22;14973;51.460;7.008;2022-10-22T06:05:53;15.30;99.90
27534;DHT22;14973;51.460;7.008;2022-10-22T06:08:18;15.20;99.90
27534;DHT22;14973;51.460;7.008;2022-10-22T06:10:44;15.20;99.90
27534;DHT22;14973;51.460;7.008;2022-10-22T06:13:10;15.20;99.90
27534;DHT22;14973;51.460;7.008;2022-10-22T06:15:35;15.20;99.90
27534;DHT22;14973;51.460;7.008;2022-10-22T06:18:01;15.20;99.90
27534;DHT22;14973;51.460;7.008;2022-10-22T06:20:26;15.20;99.90
27534;DHT22;14973;51.460;7.008;2022-10-22T06:22:52;15.30;99.90
27534;DHT22;14973;51.460;7.008;2022-10-22T06:25:17;15.30;99.90
27534;DHT22;14973;51.460;7.008;2022-10-22T06:27:47;15.30;99.90
27534;DHT22;14973;51.460;7.008;2022-10-22T06:30:13;15.40;99.90
27534;DHT22;14973;51.460;7.008;2022-10-22T06:32:38;15.40;99.90
27534;DHT22;14973;51.460;7.008;2022-10-22T06:35:05;15.40;99.90
27534;DHT22;14973;51.460;7.008;2022-10-22T06:37:31;15.30;99.90
27534;DHT22;14973;51.460;7.008;2022-10-22T06:39:57;15.40;99.90
27534;DHT22;14973;51.460;7.008;2022-10-22T06:42:22;15.40;99.90
27534;DHT22;14973;51.460;7.008;2022-10-22T06:44:48;15.50;99.90
27534;DHT22;14973;51.460;7.008;2022-10-22T06:47:14;15.50;99.90
27534;DHT22;14973;51.460;7.008;2022-10-22T06:49:39;15.60;99.90
27534;DHT22;14973;51.460;7.008;2022-10-22T06:52:05;15.60;99.90
27534;DHT22;14973;51.460;7.008;2022-10-22T06:54:30;15.70;99.90
27534;DHT22;14973;51.460;7.008;2022-10-22T06:56:56;15.60;99.90
27534;DHT22;14973;51.460;7.008;2022-10-22T06:59:21;15.60;99.90
27534;DHT22;14973;51.460;7.008;2022-10-22T07:01:47;15.60;99.90
27534;DHT22;14973;51.460;7.008;2022-10-22T07:04:13;15.50;99.90
27534;DHT22;14973;51.460;7.008;2022-10-22T07:06:38;15.50;99.90
27534;DHT22;14973;51.460;7.008;2022-10-22T07:09:04;15.50;99.90
27534;DHT22;14973;51.460;7.008;2022-10-22T07:11:44;15.50;99.90
27534;DHT22;14973;51.460;7.008;2022-10-22T07:14:10;15.50;99.90
27534;DHT22;14973;51.460;7.008;2022-10-22T07:16:36;15.60;99.90
27534;DHT22;14973;51.460;7.008;2022-10-22T07:19:03;15.60;99.90
27534;DHT22;14973;51.460;7.008;2022-10-22T07:21:29;15.70;99.90
27534;DHT22;14973;51.460;7.008;2022-10-22T07:23:54;15.80;99.90
27534;DHT22;14973;51.460;7.008;2022-10-22T07:26:21;15.90;99.90
27534;DHT22;14973;51.460;7.008;2022-10-22T07:28:46;15.90;99.90
27534;DHT22;14973;51.460;7.008;2022-10-22T07:31:13;16.00;99.90
27534;DHT22;14973;51.460;7.008;2022-10-22T07:33:39;16.10;99.90
27534;DHT22;14973;51.460;7.008;2022-10-22T07:36:07;16.30;99.90
27534;DHT22;14973;51.460;7.008;2022-10-22T07:38:33;16.50;99.90
27534;DHT22;14973;51.460;7.008;2022-10-22T07:41:00;16.90;99.90
27534;DHT22;14973;51.460;7.008;2022-10-22T07:43:26;17.20;96.70
27534;DHT22;14973;51.460;7.008;2022-10-22T07:45:51;17.50;90.20
27534;DHT22;14973;51.460;7.008;2022-10-22T07:48:17;17.70;82.10
27534;DHT22;14973;51.460;7.008;2022-10-22T07:50:43;17.70;77.90
27534;DHT22;14973;51.460;7.008;2022-10-22T07:53:08;17.70;75.20
27534;DHT22;14973;51.460;7.008;2022-10-22T07:55:34;17.80;70.30
27534;DHT22;14973;51.460;7.008;2022-10-22T07:58:00;17.80;68.90
27534;DHT22;14973;51.460;7.008;2022-10-22T08:00:26;17.70;67.00
27534;DHT22;14973;51.460;7.008;2022-10-22T08:02:51;17.70;65.30
27534;DHT22;14973;51.460;7.008;2022-10-22T08:05:17;17.80;64.10
27534;DHT22;14973;51.460;7.008;2022-10-22T08:07:42;17.90;60.60
27534;DHT22;14973;51.460;7.008;2022-10-22T08:10:09;18.10;53.60
27534;DHT22;14973;51.460;7.008;2022-10-22T08:12:36;18.40;51.20
27534;DHT22;14973;51.460;7.008;2022-10-22T08:15:02;18.60;41.90
27534;DHT22;14973;51.460;7.008;2022-10-22T08:17:28;18.80;29.60
27534;DHT22;14973;51.460;7.008;2022-10-22T08:19:53;18.90;1.00
27534;DHT22;14973;51.460;7.008;2022-10-22T08:22:19;18.80;1.00
27534;DHT22;14973;51.460;7.008;2022-10-22T08:24:45;18.90;1.00
27534;DHT22;14973;51.460;7.008;2022-10-22T08:27:11;18.80;1.00
27534;DHT22;14973;51.460;7.008;2022-10-22T08:29:37;18.90;1.00
27534;DHT22;14973;51.460;7.008;2022-10-22T08:32:03;18.90;1.00
27534;DHT22;14973;51.460;7.008;2022-10-22T08:34:29;18.80;1.00
27534;DHT22;14973;51.460;7.008;2022-10-22T08:36:55;18.80;1.00
27534;DHT22;14973;51.460;7.008;2022-10-22T08:39:21;18.80;1.00
27534;DHT22;14973;51.460;7.008;2022-10-22T08:47:30;18.40;1.00
27534;DHT22;14973;51.460;7.008;2022-10-22T08:49:59;18.20;1.00
27534;DHT22;14973;51.460;7.008;2022-10-22T08:52:25;18.00;1.00
27534;DHT22;14973;51.460;7.008;2022-10-22T08:54:58;18.00;1.00
27534;DHT22;14973;51.460;7.008;2022-10-22T08:57:45;18.10;1.00
27534;DHT22;14973;51.460;7.008;2022-10-22T09:03:23;18.20;1.00
27534;DHT22;14973;51.460;7.008;2022-10-22T09:08:36;18.30;1.00
27534;DHT22;14973;51.460;7.008;2022-10-22T09:11:12;18.40;1.00
27534;DHT22;14973;51.460;7.008;2022-10-22T09:13:40;18.60;1.00
27534;DHT22;14973;51.460;7.008;2022-10-22T09:16:17;18.70;1.00
27534;DHT22;14973;51.460;7.008;2022-10-22T09:18:59;18.60;1.00
27534;DHT22;14973;51.460;7.008;2022-10-22T09:24:03;19.10;1.00
27534;DHT22;14973;51.460;7.008;2022-10-22T09:26:32;19.30;99.90
27534;DHT22;14973;51.460;7.008;2022-10-22T09:28:59;19.40;99.90
27534;DHT22;14973;51.460;7.008;2022-10-22T09:31:27;19.60;99.90
27534;DHT22;14973;51.460;7.008;2022-10-22T09:33:54;19.50;99.90
27534;DHT22;14973;51.460;7.008;2022-10-22T09:36:22;19.60;99.90
27534;DHT22;14973;51.460;7.008;2022-10-22T09:38:52;19.40;99.90
27534;DHT22;14973;51.460;7.008;2022-10-22T09:41:19;19.20;99.90
27534;DHT22;14973;51.460;7.008;2022-10-22T09:43:47;18.90;1.00
27534;DHT22;14973;51.460;7.008;2022-10-22T09:46:19;18.70;1.00
27534;DHT22;14973;51.460;7.008;2022-10-22T09:49:02;18.60;1.00
27534;DHT22;14973;51.460;7.008;2022-10-22T09:56:51;18.60;1.00
27534;DHT22;14973;51.460;7.008;2022-10-22T09:59:18;18.70;1.00
27534;DHT22;14973;51.460;7.008;2022-10-22T10:01:56;18.80;1.00
27534;DHT22;14973;51.460;7.008;2022-10-22T10:04:22;18.90;1.00
27534;DHT22;14973;51.460;7.008;2022-10-22T10:06:53;18.70;1.00
27534;DHT22;14973;51.460;7.008;2022-10-22T10:09:22;18.90;1.00
27534;DHT22;14973;51.460;7.008;2022-10-22T10:12:16;18.90;1.00
27534;DHT22;14973;51.460;7.008;2022-10-22T10:20:28;19.10;99.90
27534;DHT22;14973;51.460;7.008;2022-10-22T10:22:59;19.00;99.90
27534;DHT22;14973;51.460;7.008;2022-10-22T10:25:57;18.90;99.90
27534;DHT22;14973;51.460;7.008;2022-10-22T10:36:55;18.60;1.00
27534;DHT22;14973;51.460;7.008;2022-10-22T10:39:41;18.70;99.90
27534;DHT22;14973;51.460;7.008;2022-10-22T10:42:35;18.70;1.00
27534;DHT22;14973;51.460;7.008;2022-10-22T10:45:14;18.70;1.00
27534;DHT22;14973;51.460;7.008;2022-10-22T10:50:23;19.20;99.90
27534;DHT22;14973;51.460;7.008;2022-10-22T10:53:11;19.20;99.90
27534;DHT22;14973;51.460;7.008;2022-10-22T11:01:28;19.40;99.90
27534;DHT22;14973;51.460;7.008;2022-10-22T11:06:43;19.40;99.90
27534;DHT22;14973;51.460;7.008;2022-10-22T11:09:33;19.40;1.00
27534;DHT22;14973;51.460;7.008;2022-10-22T11:12:22;19.40;99.90
27534;DHT22;14973;51.460;7.008;2022-10-22T11:15:08;19.40;99.90
27534;DHT22;14973;51.460;7.008;2022-10-22T11:17:43;19.50;30.40
27534;DHT22;14973;51.460;7.008;2022-10-22T11:20:21;19.40;99.90
27534;DHT22;14973;51.460;7.008;2022-10-22T11:23:00;19.40;99.90
27534;DHT22;14973;51.460;7.008;2022-10-22T11:25:32;19.50;99.90
27534;DHT22;14973;51.460;7.008;2022-10-22T11:28:04;19.50;72.30
27534;DHT22;14973;51.460;7.008;2022-10-22T11:30:34;19.60;1.00
27534;DHT22;14973;51.460;7.008;2022-10-22T11:33:04;19.40;99.90
27534;DHT22;14973;51.460;7.008;2022-10-22T11:35:33;19.30;1.00
27534;DHT22;14973;51.460;7.008;2022-10-22T11:38:01;19.30;99.90
27534;DHT22;14973;51.460;7.008;2022-10-22T11:42:56;19.20;1.00
27534;DHT22;14973;51.460;7.008;2022-10-22T11:48:13;19.40;99.90
27534;DHT22;14973;51.460;7.008;2022-10-22T12:08:58;18.90;99.90
27534;DHT22;14973;51.460;7.008;2022-10-22T12:11:35;18.90;1.00
27534;DHT22;14973;51.460;7.008;2022-10-22T12:16:39;19.10;86.90
27534;DHT22;14973;51.460;7.008;2022-10-22T12:19:23;19.10;99.90
27534;DHT22;14973;51.460;7.008;2022-10-22T12:21:58;19.20;99.90
27534;DHT22;14973;51.460;7.008;2022-10-22T12:24:31;19.30;1.00
27534;DHT22;14973;51.460;7.008;2022-10-22T12:26:58;19.30;1.00
27534;DHT22;14973;51.460;7.008;2022-10-22T12:29:24;19.30;83.70
27534;DHT22;14973;51.460;7.008;2022-10-22T12:31:51;19.20;1.00
27534;DHT22;14973;51.460;7.008;2022-10-22T12:34:20;19.10;1.00
27534;DHT22;14973;51.460;7.008;2022-10-22T12:36:47;19.20;59.20
27534;DHT22;14973;51.460;7.008;2022-10-22T12:39:15;19.20;4.60
27534;DHT22;14973;51.460;7.008;2022-10-22T12:41:42;19.10;99.90
27534;DHT22;14973;51.460;7.008;2022-10-22T12:44:11;19.10;99.90
27534;DHT22;14973;51.460;7.008;2022-10-22T12:46:38;18.90;1.00
27534;DHT22;14973;51.460;7.008;2022-10-22T12:49:10;18.80;99.90
27534;DHT22;14973;51.460;7.008;2022-10-22T12:51:38;18.60;99.90
27534;DHT22;14973;51.460;7.008;2022-10-22T12:54:11;18.80;99.90
27534;DHT22;14973;51.460;7.008;2022-10-22T12:56:37;18.80;99.90
27534;DHT22;14973;51.460;7.008;2022-10-22T13:01:58;19.10;99.90
27534;DHT22;14973;51.460;7.008;2022-10-22T13:04:36;19.10;1.00
27534;DHT22;14973;51.460;7.008;2022-10-22T13:12:09;19.10;99.90
27534;DHT22;14973;51.460;7.008;2022-10-22T13:14:41;19.20;99.90
27534;DHT22;14973;51.460;7.008;2022-10-22T13:17:18;19.20;1.00
27534;DHT22;14973;51.460;7.008;2022-10-22T13:19:59;19.30;1.00
27534;DHT22;14973;51.460;7.008;2022-10-22T13:22:33;19.30;1.00
27534;DHT22;14973;51.460;7.008;2022-10-22T13:25:21;19.20;1.00
27534;DHT22;14973;51.460;7.008;2022-10-22T13:28:11;19.20;1.00
27534;DHT22;14973;51.460;7.008;2022-10-22T13:30:38;19.20;99.90
27534;DHT22;14973;51.460;7.008;2022-10-22T13:33:16;19.10;99.90
27534;DHT22;14973;51.460;7.008;2022-10-22T13:35:44;19.10;1.00
27534;DHT22;14973;51.460;7.008;2022-10-22T13:38:19;19.10;1.00
27534;DHT22;14973;51.460;7.008;2022-10-22T13:40:45;19.10;99.90
27534;DHT22;14973;51.460;7.008;2022-10-22T13:43:11;19.10;1.00
27534;DHT22;14973;51.460;7.008;2022-10-22T13:45:37;19.10;1.00
27534;DHT22;14973;51.460;7.008;2022-10-22T13:48:03;19.20;99.90
27534;DHT22;14973;51.460;7.008;2022-10-22T13:50:28;19.30;1.00
27534;DHT22;14973;51.460;7.008;2022-10-22T13:52:56;19.20;1.00
27534;DHT22;14973;51.460;7.008;2022-10-22T13:55:27;19.20;99.90
27534;DHT22;14973;51.460;7.008;2022-10-22T13:58:08;19.10;22.10
27534;DHT22;14973;51.460;7.008;2022-10-22T14:00:34;19.10;42.70
27534;DHT22;14973;51.460;7.008;2022-10-22T14:03:01;19.00;1.00
27534;DHT22;14973;51.460;7.008;2022-10-22T14:05:27;18.90;99.90
27534;DHT22;14973;51.460;7.008;2022-10-22T14:07:54;19.00;99.90
27534;DHT22;14973;51.460;7.008;2022-10-22T14:10:23;18.90;1.00
27534;DHT22;14973;51.460;7.008;2022-10-22T14:12:50;19.10;1.00
27534;DHT22;14973;51.460;7.008;2022-10-22T14:15:18;19.10;1.00
27534;DHT22;14973;51.460;7.008;2022-10-22T14:17:47;19.20;99.90
27534;DHT22;14973;51.460;7.008;2022-10-22T14:20:25;19.20;99.90
27534;DHT22;14973;51.460;7.008;2022-10-22T14:22:52;19.30;1.00
27534;DHT22;14973;51.460;7.008;2022-10-22T14:25:23;19.20;1.00
27534;DHT22;14973;51.460;7.008;2022-10-22T14:27:49;19.10;1.00
27534;DHT22;14973;51.460;7.008;2022-10-22T14:30:17;19.10;1.00
27534;DHT22;14973;51.460;7.008;2022-10-22T14:32:43;19.00;1.00
27534;DHT22;14973;51.460;7.008;2022-10-22T14:35:14;19.00;99.90
27534;DHT22;14973;51.460;7.008;2022-10-22T14:37:40;18.90;99.90
27534;DHT22;14973;51.460;7.008;2022-10-22T14:40:07;18.90;99.90
27534;DHT22;14973;51.460;7.008;2022-10-22T14:42:39;18.80;1.00
27534;DHT22;14973;51.460;7.008;2022-10-22T14:45:10;18.80;99.90
27534;DHT22;14973;51.460;7.008;2022-10-22T14:47:38;18.70;99.90
27534;DHT22;14973;51.460;7.008;2022-10-22T14:50:04;18.80;1.00
27534;DHT22;14973;51.460;7.008;2022-10-22T14:52:31;18.70;1.00
27534;DHT22;14973;51.460;7.008;2022-10-22T14:54:56;18.80;99.90
27534;DHT22;14973;51.460;7.008;2022-10-22T14:57:22;18.70;99.90
27534;DHT22;14973;51.460;7.008;2022-10-22T14:59:47;18.70;99.90
27534;DHT22;14973;51.460;7.008;2022-10-22T15:02:13;18.80;99.90
27534;DHT22;14973;51.460;7.008;2022-10-22T15:04:39;18.80;11.80
27534;DHT22;14973;51.460;7.008;2022-10-22T15:07:04;18.60;99.90
27534;DHT22;14973;51.460;7.008;2022-10-22T15:09:30;18.60;1.00
27534;DHT22;14973;51.460;7.008;2022-10-22T15:11:57;18.50;99.90
27534;DHT22;14973;51.460;7.008;2022-10-22T15:14:23;18.40;27.10
27534;DHT22;14973;51.460;7.008;2022-10-22T15:16:48;18.30;1.00
27534;DHT22;14973;51.460;7.008;2022-10-22T15:19:14;18.30;1.00
27534;DHT22;14973;51.460;7.008;2022-10-22T15:21:39;18.30;99.90
27534;DHT22;14973;51.460;7.008;2022-10-22T15:24:05;18.30;99.90
27534;DHT22;14973;51.460;7.008;2022-10-22T15:26:31;18.30;1.00
27534;DHT22;14973;51.460;7.008;2022-10-22T15:28:56;18.30;99.90
27534;DHT22;14973;51.460;7.008;2022-10-22T15:34:09;18.30;99.90
27534;DHT22;14973;51.460;7.008;2022-10-22T15:36:35;18.20;99.90
27534;DHT22;14973;51.460;7.008;2022-10-22T15:39:06;18.20;1.00
27534;DHT22;14973;51.460;7.008;2022-10-22T15:41:33;18.20;99.90
27534;DHT22;14973;51.460;7.008;2022-10-22T15:43:58;18.00;75.60
27534;DHT22;14973;51.460;7.008;2022-10-22T15:46:24;17.90;99.90
27534;DHT22;14973;51.460;7.008;2022-10-22T15:48:52;17.80;99.90
27534;DHT22;14973;51.460;7.008;2022-10-22T15:51:18;17.80;99.90
27534;DHT22;14973;51.460;7.008;2022-10-22T15:53:50;17.70;99.90
27534;DHT22;14973;51.460;7.008;2022-10-22T15:56:16;17.60;1.00
27534;DHT22;14973;51.460;7.008;2022-10-22T15:58:42;17.50;1.00
27534;DHT22;14973;51.460;7.008;2022-10-22T16:01:09;17.40;1.00
27534;DHT22;14973;51.460;7.008;2022-10-22T16:03:36;17.30;1.00
27534;DHT22;14973;51.460;7.008;2022-10-22T16:06:02;17.20;1.00
27534;DHT22;14973;51.460;7.008;2022-10-22T16:08:28;17.10;1.00
27534;DHT22;14973;51.460;7.008;2022-10-22T16:10:54;17.10;1.00
27534;DHT22;14973;51.460;7.008;2022-10-22T16:13:20;17.00;1.00
27534;DHT22;14973;51.460;7.008;2022-10-22T16:15:48;16.90;1.00
27534;DHT22;14973;51.460;7.008;2022-10-22T16:18:14;16.80;1.00
27534;DHT22;14973;51.460;7.008;2022-10-22T16:20:40;16.70;1.00
27534;DHT22;14973;51.460;7.008;2022-10-22T16:23:07;16.70;1.00
27534;DHT22;14973;51.460;7.008;2022-10-22T16:25:39;16.70;1.00
27534;DHT22;14973;51.460;7.008;2022-10-22T16:28:06;16.60;1.00
27534;DHT22;14973;51.460;7.008;2022-10-22T16:30:32;16.50;11.10
27534;DHT22;14973;51.460;7.008;2022-10-22T16:32:59;16.50;19.50
27534;DHT22;14973;51.460;7.008;2022-10-22T16:35:25;16.40;17.00
27534;DHT22;14973;51.460;7.008;2022-10-22T16:37:51;16.30;26.40
27534;DHT22;14973;51.460;7.008;2022-10-22T16:40:16;16.30;31.90
27534;DHT22;14973;51.460;7.008;2022-10-22T16:42:43;16.30;34.60
27534;DHT22;14973;51.460;7.008;2022-10-22T16:45:09;16.20;37.80
27534;DHT22;14973;51.460;7.008;2022-10-22T16:47:35;16.20;38.00
27534;DHT22;14973;51.460;7.008;2022-10-22T16:50:00;16.20;40.70
27534;DHT22;14973;51.460;7.008;2022-10-22T16:52:26;16.10;44.90
27534;DHT22;14973;51.460;7.008;2022-10-22T16:54:52;16.10;43.50
27534;DHT22;14973;51.460;7.008;2022-10-22T16:57:17;16.10;46.10
27534;DHT22;14973;51.460;7.008;2022-10-22T16:59:43;16.00;53.30
27534;DHT22;14973;51.460;7.008;2022-10-22T17:02:09;15.80;61.60
27534;DHT22;14973;51.460;7.008;2022-10-22T17:04:35;15.80;68.70
27534;DHT22;14973;51.460;7.008;2022-10-22T17:07:01;15.80;67.50
27534;DHT22;14973;51.460;7.008;2022-10-22T17:09:26;15.70;69.20
27534;DHT22;14973;51.460;7.008;2022-10-22T17:11:52;15.70;70.80
27534;DHT22;14973;51.460;7.008;2022-10-22T17:14:18;15.60;77.20
27534;DHT22;14973;51.460;7.008;2022-10-22T17:16:44;15.60;79.40
27534;DHT22;14973;51.460;7.008;2022-10-22T17:19:12;15.80;71.00
27534;DHT22;14973;51.460;7.008;2022-10-22T17:21:40;15.80;70.30
27534;DHT22;14973;51.460;7.008;2022-10-22T17:24:06;15.60;71.90
27534;DHT22;14973;51.460;7.008;2022-10-22T17:26:31;15.60;83.20